Terminal Aerodrome Forecast
Issued by NWS

Home | Current Version | Previous Version | Text Only | Print | Product List | Glossary On
Versions: 1 2 3 4 5 6 7 8 9 10 11 12 13 14 15 16
000
FTUS44 KCRP 192300
TAFALI
TAF
KALI 192332Z 2000/2024 14012G18KT P6SM FEW020 SCT040
     FM200100 14008KT P6SM SCT020
     FM200700 14006KT 5SM BR BKN012
     FM201000 14006KT 5SM BR BKN008
     FM201500 15012G18KT P6SM OVC018
     FM201800 14017G23KT P6SM BKN035=

USA.gov is the U.S. government's official web portal to all federal, state and local government web resources and services.